Adams Field
KLIT : rendu visible

Aérodrome :











RETROUVEZ-NOUS SUR...

 
LOGIN :

S'inscrire | Disclaimer

   EN    FR    IT 

 









Légende :    VFR   VFR Marginal   IFR   IFR Intensif   IFR Très Intensif
Visi : 
Plafond : 
>= 8 km
>= 3000ft
5 à 8 km
1000 à 3000 ft
1500m à 5 km
500 à 1000 ft
800 à 1500m
200 à 500 ft
< 800m
< 200 ft
Symboles :   Orages  Brouillard  Fortes neiges  Fortes précipitations  Vent > 20 kt






- Altitude de l'aérodrome : 262 ft
- Code IATA : LIT


KLIT - Adams Field

DERNIER METAR :
  • 260453Z 12003KT 10SM OVC085 07/04 A3011 RMK AO2 RAE25 SLP200 P0001 T00670044 $

METARs EXPIRÉS :
  • 260353Z 00000KT 10SM -RA OVC070 07/04 A3011 RMK AO2 RAB12 SLP201 P0001 T00720044 $
  • 260253Z 15006KT 10SM OVC080 08/03 A3011 RMK AO2 SLP198 T00780033 53003 $

TAF KLIT
Valide du 26 à 04h jusqu'au 27 à 00h UTC


260355Z 2604/2624 15005KT P6SM -SHRA SCT025 OVC080
TEMPO 2607/2611 5SM BR BKN025
FM261100 16005KT P6SM VCSH OVC010
FM261800 18005KT P6SM BKN012 OVC025



MET'MAP, la Météo Aéronautique d'un coup d'oeil ! - Copyright ORBIFLY Décembre 2007 - Disclaimer

ORBIFLY MET'MAP TEAM :

Programmation & Développement : Alexandra Zaïnal
Sur une idée originale de : Baudouin d'Aumeries
Assistance à la programmation : Marc-Olivier Méhu
Soutien technique & logistique : Manuel Goepfert

Contact : metmap@orbifly.com




SOURCES & CREDITS :

   NOAA       Earth
Advisory